createdAt,value
2022-08-21T08:06:42.563Z,100447.97
2022-08-21T08:09:26.334Z,100446.22
2022-08-21T08:12:54.352Z,100446.03
2022-08-21T08:24:18.998Z,100429.50
2022-08-21T08:54:46.657Z,100422.44
2022-08-21T08:57:50.295Z,100424.09
2022-08-21T09:00:48.395Z,100416.59
2022-08-21T09:03:19.663Z,100413.84
2022-08-21T09:10:06.694Z,100417.81
2022-08-21T09:12:47.947Z,100413.47
2022-08-21T09:15:55.764Z,100401.78
2022-08-21T09:23:33.523Z,100417.72
2022-08-21T09:26:26.722Z,100405.78
2022-08-21T09:29:01.903Z,100401.25
2022-08-21T09:35:24.651Z,100384.56
2022-08-21T09:37:55.152Z,100389.28
2022-08-21T09:40:35.027Z,100393.81
2022-08-21T09:57:42.856Z,100382.81
2022-08-21T16:18:02.703Z,100101.06
2022-08-21T16:41:06.964Z,100092.78
2022-08-21T16:54:12.429Z,100097.22
2022-08-21T16:56:44.563Z,100100.22
2022-08-21T16:59:14.622Z,100089.63
2022-08-21T17:01:47.971Z,100107.63
2022-08-21T17:04:15.609Z,100097.94
2022-08-21T17:06:44.132Z,100106.63
2022-08-21T17:09:12.517Z,100102.78
2022-08-21T17:11:47.653Z,100098.06
2022-08-21T17:14:23.756Z,100101.34
2022-08-21T17:16:54.971Z,100098.22
2022-08-21T17:19:22.980Z,100102.94
2022-08-21T17:21:50.581Z,100098.81
2022-08-21T17:24:18.128Z,100102.50
2022-08-21T17:26:46.174Z,100097.81
2022-08-21T17:29:16.006Z,100097.50
2022-08-21T17:31:44.548Z,100097.03
2022-08-21T17:34:12.931Z,100084.72
2022-08-21T17:36:42.812Z,100087.25
2022-08-21T17:39:11.024Z,100090.28
2022-08-21T17:41:41.070Z,100093.28
2022-08-21T17:44:11.713Z,100086.66
2022-08-21T17:46:41.855Z,100089.72
2022-08-21T17:49:12.075Z,100085.78
2022-08-21T17:51:39.783Z,100087.94
2022-08-21T17:54:07.323Z,100088.75
2022-08-21T17:56:37.592Z,100077.22
2022-08-21T17:59:06.180Z,100081.00
2022-08-21T18:01:38.180Z,100083.34
2022-08-21T18:04:06.256Z,100088.16
2022-08-21T18:06:36.980Z,100084.81
2022-08-21T18:09:05.734Z,100089.34
2022-08-21T18:11:34.708Z,100092.91
2022-08-21T18:14:07.604Z,100093.47
2022-08-21T18:16:37.464Z,100096.78
2022-08-21T18:19:09.716Z,100103.41
2022-08-21T18:21:37.383Z,100112.50
2022-08-21T18:24:05.242Z,100104.94
2022-08-21T18:26:38.012Z,100109.69
2022-08-21T18:29:08.924Z,100111.28
2022-08-21T18:31:38.290Z,100114.72
2022-08-21T18:34:27.926Z,100114.47
2022-08-21T18:36:57.844Z,100121.50
2022-08-21T18:39:36.404Z,100122.53
2022-08-21T18:42:09.175Z,100124.78
2022-08-21T18:44:37.628Z,100118.16
2022-08-21T18:47:11.352Z,100118.63
2022-08-21T18:49:40.205Z,100123.31
2022-08-21T18:52:09.752Z,100122.41
2022-08-21T18:54:37.509Z,100123.91
2022-08-21T18:57:13.590Z,100129.09
2022-08-21T18:59:43.593Z,100127.03
2022-08-21T19:02:10.933Z,100134.31
2022-08-21T19:04:44.540Z,100129.44
2022-08-21T19:07:14.092Z,100146.75
2022-08-21T19:09:52.730Z,100152.22
2022-08-21T19:12:29.990Z,100143.75
2022-08-21T19:14:59.105Z,100154.75
2022-08-21T19:17:27.362Z,100153.56
2022-08-21T19:20:01.507Z,100154.75
2022-08-21T19:22:31.939Z,100157.91
2022-08-21T19:25:00.414Z,100170.97
2022-08-21T19:27:27.887Z,100167.66
2022-08-21T19:29:55.298Z,100167.13
2022-08-21T19:32:23.626Z,100162.59
2022-08-21T19:34:51.453Z,100176.94
2022-08-21T19:37:20.466Z,100171.03
2022-08-21T19:39:50.219Z,100171.97
2022-08-21T19:45:11.701Z,100191.28
2022-08-21T19:50:17.381Z,100204.41
2022-08-21T19:52:50.764Z,100200.78
2022-08-21T19:55:25.898Z,100202.72
2022-08-21T19:57:54.640Z,100204.94
2022-08-21T20:00:22.467Z,100200.19
2022-08-21T20:02:53.949Z,100199.72
2022-08-21T20:05:24.944Z,100205.09
2022-08-21T20:08:03.958Z,100204.34
2022-08-21T20:10:31.858Z,100205.97
2022-08-21T20:12:59.931Z,100205.19
2022-08-21T20:15:28.237Z,100205.00
2022-08-21T20:17:55.783Z,100216.88
2022-08-21T20:20:23.193Z,100212.88
2022-08-21T20:22:50.773Z,100209.81
2022-08-21T20:25:21.297Z,100217.38
2022-08-21T20:27:51.632Z,100222.09
2022-08-21T20:30:22.694Z,100221.78
2022-08-21T20:32:50.586Z,100224.22
2022-08-21T20:35:18.820Z,100229.94
2022-08-21T20:37:58.898Z,100234.44
2022-08-21T20:40:32.596Z,100222.56
2022-08-21T20:45:33.265Z,100228.16
2022-08-21T20:48:12.009Z,100225.31
2022-08-21T20:50:44.609Z,100221.31
2022-08-21T20:53:51.315Z,100230.56
2022-08-21T20:56:48.240Z,100225.00
2022-08-21T20:59:35.303Z,100226.84
2022-08-21T21:02:14.765Z,100224.56
2022-08-21T21:04:52.444Z,100228.91
2022-08-21T21:07:32.545Z,100226.97
2022-08-21T21:10:03.972Z,100217.94
2022-08-21T21:15:31.566Z,100224.72
2022-08-21T21:18:13.060Z,100233.31
2022-08-21T21:20:53.749Z,100220.88
2022-08-21T21:23:36.743Z,100219.47
2022-08-21T21:26:16.440Z,100221.53
2022-08-21T21:29:18.966Z,100219.16
2022-08-21T21:31:46.930Z,100223.09
2022-08-21T21:34:17.070Z,100231.50
2022-08-21T21:39:59.024Z,100227.41
2022-08-21T21:42:32.388Z,100227.75
2022-08-21T21:45:14.652Z,100239.34
2022-08-21T21:47:57.756Z,100234.09
2022-08-21T21:51:00.680Z,100240.19
2022-08-21T21:54:23.142Z,100244.09
2022-08-21T21:57:06.221Z,100244.28
2022-08-21T21:59:51.652Z,100240.66
2022-08-21T22:02:43.238Z,100249.56
2022-08-21T22:05:26.694Z,100255.72
2022-08-21T22:08:08.039Z,100261.31
2022-08-21T22:10:46.188Z,100267.53
2022-08-21T22:13:52.422Z,100269.44
2022-08-21T22:16:20.579Z,100273.41
2022-08-21T22:18:58.705Z,100274.16
2022-08-21T22:21:36.292Z,100276.78
2022-08-21T22:24:15.330Z,100273.53
2022-08-21T22:26:49.040Z,100275.56
2022-08-21T22:29:21.925Z,100281.25
2022-08-21T22:32:10.556Z,100279.34
2022-08-21T22:34:39.842Z,100281.06
2022-08-21T22:37:11.301Z,100283.19
2022-08-21T22:39:42.543Z,100278.91
2022-08-21T22:42:22.088Z,100276.81
2022-08-21T22:44:53.362Z,100280.19
2022-08-21T22:47:25.858Z,100277.69
2022-08-21T22:49:54.744Z,100282.09
2022-08-21T22:52:29.461Z,100278.66
2022-08-21T22:55:00.595Z,100276.38
2022-08-21T22:57:31.749Z,100281.91
2022-08-21T23:00:11.148Z,100274.50
2022-08-21T23:02:51.967Z,100268.47
2022-08-21T23:05:31.274Z,100274.16
2022-08-21T23:08:01.395Z,100271.16
2022-08-21T23:10:41.653Z,100276.94
2022-08-21T23:13:13.465Z,100280.06
2022-08-21T23:15:51.252Z,100282.44
2022-08-21T23:18:37.313Z,100278.69
2022-08-21T23:21:23.501Z,100282.88
2022-08-21T23:24:19.852Z,100281.91
2022-08-21T23:30:14.901Z,100277.16
2022-08-21T23:33:04.263Z,100273.06
2022-08-21T23:36:11.895Z,100276.31
2022-08-21T23:38:47.783Z,100274.00
2022-08-21T23:41:36.126Z,100266.38
2022-08-21T23:44:25.209Z,100261.53
2022-08-21T23:47:34.879Z,100268.19
2022-08-21T23:50:14.196Z,100274.03
2022-08-21T23:52:59.157Z,100274.47
2022-08-21T23:55:45.260Z,100275.41
2022-08-21T23:58:12.757Z,100272.53
